sensor_id;sensor_type;location;lat;lon;timestamp;pressure;altitude;pressure_sealevel;temperature;humidity
64739;BME280;51175;51.186;0.276;2023-05-08T00:00:02;101704.38;;;18.64;64.59
64739;BME280;51175;51.186;0.276;2023-05-08T00:00:34;101705.19;;;18.65;64.57
64739;BME280;51175;51.186;0.276;2023-05-08T00:01:04;101704.09;;;18.66;64.35
64739;BME280;51175;51.186;0.276;2023-05-08T00:01:35;101705.19;;;18.65;64.55
64739;BME280;51175;51.186;0.276;2023-05-08T00:02:05;101705.19;;;18.65;64.42
64739;BME280;51175;51.186;0.276;2023-05-08T00:02:36;101709.72;;;18.64;64.52
64739;BME280;51175;51.186;0.276;2023-05-08T00:03:06;101707.06;;;18.64;64.57
64739;BME280;51175;51.186;0.276;2023-05-08T00:03:36;101707.88;;;18.65;64.78
64739;BME280;51175;51.186;0.276;2023-05-08T00:04:07;101707.88;;;18.65;64.55
64739;BME280;51175;51.186;0.276;2023-05-08T00:04:37;101710.81;;;18.63;64.52
64739;BME280;51175;51.186;0.276;2023-05-08T00:05:08;101716.97;;;18.64;64.33
64739;BME280;51175;51.186;0.276;2023-05-08T00:05:40;101710.81;;;18.63;64.64
64739;BME280;51175;51.186;0.276;2023-05-08T00:06:10;101704.66;;;18.63;64.42
64739;BME280;51175;51.186;0.276;2023-05-08T00:06:41;101709.25;;;18.62;64.52
64739;BME280;51175;51.186;0.276;2023-05-08T00:07:11;101711.63;;;18.64;64.43
64739;BME280;51175;51.186;0.276;2023-05-08T00:07:42;101709.25;;;18.62;64.60
64739;BME280;51175;51.186;0.276;2023-05-08T00:08:12;101706.56;;;18.62;64.50
64739;BME280;51175;51.186;0.276;2023-05-08T00:08:43;101710.31;;;18.61;64.51
64739;BME280;51175;51.186;0.276;2023-05-08T00:09:13;101714.88;;;18.60;64.51
64739;BME280;51175;51.186;0.276;2023-05-08T00:09:43;101709.00;;;18.58;64.37
64739;BME280;51175;51.186;0.276;2023-05-08T00:10:15;101708.72;;;18.60;64.44
64739;BME280;51175;51.186;0.276;2023-05-08T00:10:45;101705.22;;;18.59;64.53
64739;BME280;51175;51.186;0.276;2023-05-08T00:11:16;101707.41;;;18.57;64.31
64739;BME280;51175;51.186;0.276;2023-05-08T00:11:46;101707.41;;;18.57;64.56
64739;BME280;51175;51.186;0.276;2023-05-08T00:12:17;101707.41;;;18.57;64.41
64739;BME280;51175;51.186;0.276;2023-05-08T00:12:47;101702.84;;;18.58;64.67
64739;BME280;51175;51.186;0.276;2023-05-08T00:13:17;101706.59;;;18.57;64.54
64739;BME280;51175;51.186;0.276;2023-05-08T00:13:48;101707.41;;;18.57;64.64
64739;BME280;51175;51.186;0.276;2023-05-08T00:14:18;101702.06;;;18.57;64.35
64739;BME280;51175;51.186;0.276;2023-05-08T00:14:49;101703.94;;;18.57;64.67
64739;BME280;51175;51.186;0.276;2023-05-08T00:15:19;101701.53;;;18.55;64.57
64739;BME280;51175;51.186;0.276;2023-05-08T00:15:50;101706.91;;;18.55;64.50
64739;BME280;51175;51.186;0.276;2023-05-08T00:16:20;101707.97;;;18.54;64.64
64739;BME280;51175;51.186;0.276;2023-05-08T00:16:51;101702.63;;;18.54;64.57
64739;BME280;51175;51.186;0.276;2023-05-08T00:17:21;101702.63;;;18.54;64.64
64739;BME280;51175;51.186;0.276;2023-05-08T00:17:52;101705.31;;;18.54;64.73
64739;BME280;51175;51.186;0.276;2023-05-08T00:18:22;101699.16;;;18.54;64.42
64739;BME280;51175;51.186;0.276;2023-05-08T00:18:52;101709.84;;;18.54;64.50
64739;BME280;51175;51.186;0.276;2023-05-08T00:19:24;101702.91;;;18.53;64.44
64739;BME280;51175;51.186;0.276;2023-05-08T00:19:54;101702.13;;;18.52;64.63
64739;BME280;51175;51.186;0.276;2023-05-08T00:20:25;101703.97;;;18.52;64.64
64739;BME280;51175;51.186;0.276;2023-05-08T00:20:55;101708.56;;;18.51;64.68
64739;BME280;51175;51.186;0.276;2023-05-08T00:21:26;101709.34;;;18.52;64.48
64739;BME280;51175;51.186;0.276;2023-05-08T00:21:56;101708.56;;;18.51;64.55
64739;BME280;51175;51.186;0.276;2023-05-08T00:22:26;101705.06;;;18.51;64.57
64739;BME280;51175;51.186;0.276;2023-05-08T00:22:57;101702.69;;;18.49;64.64
64739;BME280;51175;51.186;0.276;2023-05-08T00:23:27;101707.22;;;18.48;64.31
64739;BME280;51175;51.186;0.276;2023-05-08T00:23:57;101702.69;;;18.49;64.43
64739;BME280;51175;51.186;0.276;2023-05-08T00:24:28;101701.09;;;18.48;64.61
64739;BME280;51175;51.186;0.276;2023-05-08T00:24:58;101699.19;;;18.48;64.73
64739;BME280;51175;51.186;0.276;2023-05-08T00:25:28;101707.50;;;18.47;64.51
64739;BME280;51175;51.186;0.276;2023-05-08T00:26:01;101711.00;;;18.47;64.59
64739;BME280;51175;51.186;0.276;2023-05-08T00:26:31;101704.06;;;18.46;64.67
64739;BME280;51175;51.186;0.276;2023-05-08T00:27:02;101707.50;;;18.47;64.74
64739;BME280;51175;51.186;0.276;2023-05-08T00:27:32;101709.41;;;18.46;64.63
64739;BME280;51175;51.186;0.276;2023-05-08T00:28:03;101704.84;;;18.47;64.63
64739;BME280;51175;51.186;0.276;2023-05-08T00:28:33;101704.06;;;18.46;64.74
64739;BME280;51175;51.186;0.276;2023-05-08T00:29:03;101705.91;;;18.46;64.44
64739;BME280;51175;51.186;0.276;2023-05-08T00:29:34;101707.00;;;18.45;64.72
64739;BME280;51175;51.186;0.276;2023-05-08T00:30:06;101707.78;;;18.45;64.66
64739;BME280;51175;51.186;0.276;2023-05-08T00:30:36;101702.44;;;18.45;64.52
64739;BME280;51175;51.186;0.276;2023-05-08T00:31:07;101707.00;;;18.45;64.33
64739;BME280;51175;51.186;0.276;2023-05-08T00:31:37;101700.84;;;18.44;64.54
64739;BME280;51175;51.186;0.276;2023-05-08T00:32:08;101704.34;;;18.45;64.37
64739;BME280;51175;51.186;0.276;2023-05-08T00:32:39;101702.72;;;18.44;64.48
64739;BME280;51175;51.186;0.276;2023-05-08T00:33:09;101701.13;;;18.43;64.69
64739;BME280;51175;51.186;0.276;2023-05-08T00:33:40;101699.28;;;18.43;64.60
64739;BME280;51175;51.186;0.276;2023-05-08T00:34:11;101697.66;;;18.42;64.40
64739;BME280;51175;51.186;0.276;2023-05-08T00:34:41;101701.94;;;18.43;64.39
64739;BME280;51175;51.186;0.276;2023-05-08T00:35:11;101694.97;;;18.42;64.29
64739;BME280;51175;51.186;0.276;2023-05-08T00:35:42;101702.22;;;18.42;64.55
64739;BME280;51175;51.186;0.276;2023-05-08T00:36:12;101699.56;;;18.42;64.83
64739;BME280;51175;51.186;0.276;2023-05-08T00:36:44;101697.94;;;18.41;64.51
64739;BME280;51175;51.186;0.276;2023-05-08T00:37:15;101701.44;;;18.41;64.40
64739;BME280;51175;51.186;0.276;2023-05-08T00:37:46;101698.75;;;18.41;64.52
64739;BME280;51175;51.186;0.276;2023-05-08T00:38:16;101695.28;;;18.41;64.51
64739;BME280;51175;51.186;0.276;2023-05-08T00:38:46;101700.63;;;18.41;64.31
64739;BME280;51175;51.186;0.276;2023-05-08T00:39:17;101698.75;;;18.41;64.47
64739;BME280;51175;51.186;0.276;2023-05-08T00:39:48;101697.16;;;18.40;64.57
64739;BME280;51175;51.186;0.276;2023-05-08T00:40:18;101699.84;;;18.40;64.51
64739;BME280;51175;51.186;0.276;2023-05-08T00:40:48;101699.03;;;18.40;64.58
64739;BME280;51175;51.186;0.276;2023-05-08T00:41:19;101697.16;;;18.40;64.27
64739;BME280;51175;51.186;0.276;2023-05-08T00:41:49;101692.59;;;18.41;64.48
64739;BME280;51175;51.186;0.276;2023-05-08T00:42:19;101692.88;;;18.39;64.35
64739;BME280;51175;51.186;0.276;2023-05-08T00:42:50;101696.34;;;18.40;64.32
64739;BME280;51175;51.186;0.276;2023-05-08T00:43:20;101697.44;;;18.39;64.51
64739;BME280;51175;51.186;0.276;2023-05-08T00:43:54;101700.13;;;18.39;64.43
64739;BME280;51175;51.186;0.276;2023-05-08T00:44:25;101693.16;;;18.38;64.34
64739;BME280;51175;51.186;0.276;2023-05-08T00:44:55;101696.66;;;18.38;64.64
64739;BME280;51175;51.186;0.276;2023-05-08T00:45:35;101693.16;;;18.38;64.27
64739;BME280;51175;51.186;0.276;2023-05-08T00:46:06;101695.84;;;18.38;64.39
64739;BME280;51175;51.186;0.276;2023-05-08T00:46:39;101699.31;;;18.38;64.63
64739;BME280;51175;51.186;0.276;2023-05-08T00:47:10;101695.06;;;18.37;64.33
64739;BME280;51175;51.186;0.276;2023-05-08T00:47:41;101694.25;;;18.36;64.39
64739;BME280;51175;51.186;0.276;2023-05-08T00:48:11;101700.41;;;18.37;64.26
64739;BME280;51175;51.186;0.276;2023-05-08T00:48:43;101689.72;;;18.37;64.37
64739;BME280;51175;51.186;0.276;2023-05-08T00:49:14;101693.44;;;18.36;64.54
64739;BME280;51175;51.186;0.276;2023-05-08T00:49:45;101693.44;;;18.36;64.57
64739;BME280;51175;51.186;0.276;2023-05-08T00:50:16;101691.88;;;18.35;64.35
64739;BME280;51175;51.186;0.276;2023-05-08T00:50:47;101686.50;;;18.35;64.38
64739;BME280;51175;51.186;0.276;2023-05-08T00:51:18;101690.28;;;18.34;64.36
64739;BME280;51175;51.186;0.276;2023-05-08T00:51:50;101687.59;;;18.34;64.42
64739;BME280;51175;51.186;0.276;2023-05-08T00:52:22;101686.78;;;18.33;64.57
64739;BME280;51175;51.186;0.276;2023-05-08T00:52:53;101674.47;;;18.32;64.37
64739;BME280;51175;51.186;0.276;2023-05-08T00:53:25;101684.41;;;18.32;64.59
64739;BME280;51175;51.186;0.276;2023-05-08T00:53:56;101677.16;;;18.32;64.77
64739;BME280;51175;51.186;0.276;2023-05-08T00:54:28;101673.72;;;18.32;64.55
64739;BME280;51175;51.186;0.276;2023-05-08T00:55:03;101685.19;;;18.32;64.58
64739;BME280;51175;51.186;0.276;2023-05-08T00:55:34;101678.25;;;18.31;64.39
64739;BME280;51175;51.186;0.276;2023-05-08T00:56:05;101674.78;;;18.31;64.49
64739;BME280;51175;51.186;0.276;2023-05-08T00:56:37;101676.66;;;18.30;64.59
64739;BME280;51175;51.186;0.276;2023-05-08T00:57:07;101674.00;;;18.30;64.62
64739;BME280;51175;51.186;0.276;2023-05-08T00:57:38;101680.13;;;18.31;64.66
64739;BME280;51175;51.186;0.276;2023-05-08T00:58:09;101672.38;;;18.29;64.54
64739;BME280;51175;51.186;0.276;2023-05-08T00:58:41;101672.38;;;18.29;64.46
64739;BME280;51175;51.186;0.276;2023-05-08T00:59:13;101670.78;;;18.28;64.51
64739;BME280;51175;51.186;0.276;2023-05-08T00:59:47;101671.59;;;18.29;64.44
64739;BME280;51175;51.186;0.276;2023-05-08T01:00:19;101670.78;;;18.28;64.48
64739;BME280;51175;51.186;0.276;2023-05-08T01:00:51;101671.59;;;18.29;64.59
64739;BME280;51175;51.186;0.276;2023-05-08T01:01:23;101669.22;;;18.27;64.54
64739;BME280;51175;51.186;0.276;2023-05-08T01:01:54;101666.53;;;18.27;64.31
64739;BME280;51175;51.186;0.276;2023-05-08T01:02:24;101664.63;;;18.28;64.65
64739;BME280;51175;51.186;0.276;2023-05-08T01:02:55;101672.94;;;18.26;64.54
64739;BME280;51175;51.186;0.276;2023-05-08T01:03:26;101665.72;;;18.27;64.63
64739;BME280;51175;51.186;0.276;2023-05-08T01:03:57;101666.81;;;18.26;64.33
64739;BME280;51175;51.186;0.276;2023-05-08T01:04:29;101668.41;;;18.27;64.30
64739;BME280;51175;51.186;0.276;2023-05-08T01:05:00;101670.56;;;18.24;64.37
64739;BME280;51175;51.186;0.276;2023-05-08T01:05:31;101671.38;;;18.25;64.61
64739;BME280;51175;51.186;0.276;2023-05-08T01:06:03;101669.50;;;18.26;64.71
64739;BME280;51175;51.186;0.276;2023-05-08T01:06:34;101664.44;;;18.24;64.57
64739;BME280;51175;51.186;0.276;2023-05-08T01:07:06;101668.69;;;18.25;64.54
64739;BME280;51175;51.186;0.276;2023-05-08T01:07:36;101664.44;;;18.24;64.29
64739;BME280;51175;51.186;0.276;2023-05-08T01:08:08;101675.13;;;18.24;64.64
64739;BME280;51175;51.186;0.276;2023-05-08T01:08:39;101669.78;;;18.24;64.38
64739;BME280;51175;51.186;0.276;2023-05-08T01:09:09;101678.84;;;18.23;64.42
64739;BME280;51175;51.186;0.276;2023-05-08T01:09:40;101673.50;;;18.23;64.66
64739;BME280;51175;51.186;0.276;2023-05-08T01:10:10;101677.00;;;18.23;64.45
64739;BME280;51175;51.186;0.276;2023-05-08T01:11:53;101674.59;;;18.22;64.43
64739;BME280;51175;51.186;0.276;2023-05-08T01:15:48;101671.19;;;18.16;64.43
64739;BME280;51175;51.186;0.276;2023-05-08T01:16:34;101675.72;;;18.16;64.30
64739;BME280;51175;51.186;0.276;2023-05-08T01:17:43;101674.94;;;18.15;64.36
64739;BME280;51175;51.186;0.276;2023-05-08T01:18:30;101674.44;;;18.13;64.68
64739;BME280;51175;51.186;0.276;2023-05-08T01:20:22;101673.06;;;18.10;64.60
64739;BME280;51175;51.186;0.276;2023-05-08T01:21:30;101677.63;;;18.10;64.62
64739;BME280;51175;51.186;0.276;2023-05-08T01:25:15;101673.13;;;18.05;64.54
64739;BME280;51175;51.186;0.276;2023-05-08T01:29:05;101665.97;;;18.01;64.70
64739;BME280;51175;51.186;0.276;2023-05-08T01:32:38;101658.75;;;17.96;64.99
64739;BME280;51175;51.186;0.276;2023-05-08T01:33:16;101664.09;;;17.96;64.68
64739;BME280;51175;51.186;0.276;2023-05-08T01:34:03;101661.44;;;17.96;64.75
64739;BME280;51175;51.186;0.276;2023-05-08T01:34:41;101653.41;;;17.96;64.82
64739;BME280;51175;51.186;0.276;2023-05-08T01:35:31;101657.97;;;17.95;64.98
64739;BME280;51175;51.186;0.276;2023-05-08T01:36:24;101657.97;;;17.95;64.85
64739;BME280;51175;51.186;0.276;2023-05-08T01:37:05;101651.03;;;17.94;64.92
64739;BME280;51175;51.186;0.276;2023-05-08T01:37:43;101657.19;;;17.95;64.61
64739;BME280;51175;51.186;0.276;2023-05-08T01:40:30;101647.03;;;17.92;64.83
64739;BME280;51175;51.186;0.276;2023-05-08T01:41:09;101655.34;;;17.90;64.85
64739;BME280;51175;51.186;0.276;2023-05-08T01:41:52;101659.88;;;17.90;64.82
64739;BME280;51175;51.186;0.276;2023-05-08T01:42:55;101658.00;;;17.90;64.55
64739;BME280;51175;51.186;0.276;2023-05-08T01:44:28;101662.56;;;17.90;64.94
64739;BME280;51175;51.186;0.276;2023-05-08T01:45:09;101655.63;;;17.89;64.74
64739;BME280;51175;51.186;0.276;2023-05-08T01:45:44;101658.31;;;17.89;64.80
64739;BME280;51175;51.186;0.276;2023-05-08T01:46:19;101659.09;;;17.89;64.82
64739;BME280;51175;51.186;0.276;2023-05-08T01:46:51;101658.31;;;17.89;64.86
64739;BME280;51175;51.186;0.276;2023-05-08T01:47:26;101658.31;;;17.89;64.59
64739;BME280;51175;51.186;0.276;2023-05-08T01:48:08;101659.09;;;17.89;64.70
64739;BME280;51175;51.186;0.276;2023-05-08T01:48:46;101657.50;;;17.88;64.64
64739;BME280;51175;51.186;0.276;2023-05-08T01:49:48;101660.97;;;17.89;64.45
64739;BME280;51175;51.186;0.276;2023-05-08T01:50:24;101662.06;;;17.87;64.71
64739;BME280;51175;51.186;0.276;2023-05-08T01:51:04;101660.16;;;17.88;64.90
64739;BME280;51175;51.186;0.276;2023-05-08T01:51:43;101660.44;;;17.86;64.44
64739;BME280;51175;51.186;0.276;2023-05-08T01:52:24;101657.78;;;17.86;64.83
64739;BME280;51175;51.186;0.276;2023-05-08T01:53:10;101658.59;;;17.87;64.79
64739;BME280;51175;51.186;0.276;2023-05-08T01:53:46;101659.66;;;17.86;64.67
64739;BME280;51175;51.186;0.276;2023-05-08T01:54:24;101657.00;;;17.86;64.72
64739;BME280;51175;51.186;0.276;2023-05-08T01:55:03;101657.78;;;17.86;64.78
64739;BME280;51175;51.186;0.276;2023-05-08T01:55:35;101653.53;;;17.85;64.59
64739;BME280;51175;51.186;0.276;2023-05-08T01:56:13;101653.22;;;17.87;64.58
64739;BME280;51175;51.186;0.276;2023-05-08T01:56:47;101659.66;;;17.86;64.51
64739;BME280;51175;51.186;0.276;2023-05-08T01:57:18;101657.78;;;17.86;64.61
64739;BME280;51175;51.186;0.276;2023-05-08T01:57:53;101657.78;;;17.86;64.59
64739;BME280;51175;51.186;0.276;2023-05-08T01:58:26;101657.78;;;17.86;64.69
64739;BME280;51175;51.186;0.276;2023-05-08T01:58:58;101661.25;;;17.87;64.38
64739;BME280;51175;51.186;0.276;2023-05-08T01:59:32;101651.38;;;17.87;64.58
64739;BME280;51175;51.186;0.276;2023-05-08T02:00:04;101659.38;;;17.87;64.59
64739;BME280;51175;51.186;0.276;2023-05-08T02:00:37;101651.38;;;17.87;64.47
64739;BME280;51175;51.186;0.276;2023-05-08T02:01:11;101664.72;;;17.87;64.48
64739;BME280;51175;51.186;0.276;2023-05-08T02:01:43;101656.72;;;17.87;64.44
64739;BME280;51175;51.186;0.276;2023-05-08T02:02:16;101669.00;;;17.89;64.35
64739;BME280;51175;51.186;0.276;2023-05-08T02:02:48;101669.00;;;17.89;64.40
64739;BME280;51175;51.186;0.276;2023-05-08T02:03:20;101658.31;;;17.89;64.32
64739;BME280;51175;51.186;0.276;2023-05-08T02:03:53;101664.44;;;17.89;64.09
64739;BME280;51175;51.186;0.276;2023-05-08T02:04:25;101667.13;;;17.89;64.24
64739;BME280;51175;51.186;0.276;2023-05-08T02:04:57;101663.66;;;17.89;64.27
64739;BME280;51175;51.186;0.276;2023-05-08T02:05:28;101666.31;;;17.89;64.24
64739;BME280;51175;51.186;0.276;2023-05-08T02:06:00;101659.09;;;17.89;64.25
64739;BME280;51175;51.186;0.276;2023-05-08T02:06:32;101662.84;;;17.88;64.13
64739;BME280;51175;51.186;0.276;2023-05-08T02:07:04;101663.66;;;17.89;64.26
64739;BME280;51175;51.186;0.276;2023-05-08T02:07:35;101663.66;;;17.89;64.19
64739;BME280;51175;51.186;0.276;2023-05-08T02:08:08;101660.16;;;17.88;64.11
64739;BME280;51175;51.186;0.276;2023-05-08T02:08:42;101666.31;;;17.89;64.10
64739;BME280;51175;51.186;0.276;2023-05-08T02:09:13;101658.31;;;17.89;64.07
64739;BME280;51175;51.186;0.276;2023-05-08T02:09:45;101663.66;;;17.89;64.45
64739;BME280;51175;51.186;0.276;2023-05-08T02:10:17;101662.84;;;17.88;64.26
64739;BME280;51175;51.186;0.276;2023-05-08T02:10:49;101662.84;;;17.88;64.27
64739;BME280;51175;51.186;0.276;2023-05-08T02:11:22;101659.38;;;17.87;64.04
64739;BME280;51175;51.186;0.276;2023-05-08T02:11:54;101666.31;;;17.89;63.95
64739;BME280;51175;51.186;0.276;2023-05-08T02:12:25;101661.25;;;17.87;64.14
64739;BME280;51175;51.186;0.276;2023-05-08T02:12:58;101658.59;;;17.87;63.94
64739;BME280;51175;51.186;0.276;2023-05-08T02:13:30;101667.41;;;17.87;64.26
64739;BME280;51175;51.186;0.276;2023-05-08T02:14:03;101670.06;;;17.87;64.15
64739;BME280;51175;51.186;0.276;2023-05-08T02:14:36;101665.78;;;17.86;63.97
64739;BME280;51175;51.186;0.276;2023-05-08T02:15:08;101663.91;;;17.87;64.19
64739;BME280;51175;51.186;0.276;2023-05-08T02:15:40;101671.94;;;17.87;64.11
64739;BME280;51175;51.186;0.276;2023-05-08T02:16:11;101671.13;;;17.86;64.15
64739;BME280;51175;51.186;0.276;2023-05-08T02:16:42;101670.06;;;17.87;64.24
64739;BME280;51175;51.186;0.276;2023-05-08T02:17:15;101674.63;;;17.87;64.10
64739;BME280;51175;51.186;0.276;2023-05-08T02:17:48;101671.13;;;17.86;63.88
64739;BME280;51175;51.186;0.276;2023-05-08T02:18:20;101673.81;;;17.86;63.98
64739;BME280;51175;51.186;0.276;2023-05-08T02:18:54;101678.09;;;17.87;63.86
64739;BME280;51175;51.186;0.276;2023-05-08T02:19:26;101678.38;;;17.86;64.09
64739;BME280;51175;51.186;0.276;2023-05-08T02:19:58;101670.34;;;17.86;64.09
64739;BME280;51175;51.186;0.276;2023-05-08T02:20:31;101674.91;;;17.85;63.98
64739;BME280;51175;51.186;0.276;2023-05-08T02:21:04;101675.69;;;17.86;63.96
64739;BME280;51175;51.186;0.276;2023-05-08T02:21:36;101676.47;;;17.86;64.15
64739;BME280;51175;51.186;0.276;2023-05-08T02:22:07;101674.91;;;17.85;63.88
64739;BME280;51175;51.186;0.276;2023-05-08T02:22:38;101676.75;;;17.85;64.16
64739;BME280;51175;51.186;0.276;2023-05-08T02:23:11;101676.75;;;17.85;64.00
64739;BME280;51175;51.186;0.276;2023-05-08T02:23:44;101672.50;;;17.84;63.82
64739;BME280;51175;51.186;0.276;2023-05-08T02:24:16;101675.97;;;17.84;63.94
64739;BME280;51175;51.186;0.276;2023-05-08T02:24:46;101680.50;;;17.84;63.92
64739;BME280;51175;51.186;0.276;2023-05-08T02:25:18;101669.03;;;17.83;63.84
64739;BME280;51175;51.186;0.276;2023-05-08T02:25:49;101671.69;;;17.83;63.86
64739;BME280;51175;51.186;0.276;2023-05-08T02:26:21;101675.19;;;17.84;63.97
64739;BME280;51175;51.186;0.276;2023-05-08T02:26:52;101674.38;;;17.83;63.85
64739;BME280;51175;51.186;0.276;2023-05-08T02:27:27;101678.66;;;17.84;63.86
64739;BME280;51175;51.186;0.276;2023-05-08T02:27:58;101678.13;;;17.82;63.89
64739;BME280;51175;51.186;0.276;2023-05-08T02:28:29;101679.72;;;17.83;63.81
64739;BME280;51175;51.186;0.276;2023-05-08T02:29:02;101675.19;;;17.84;63.81
64739;BME280;51175;51.186;0.276;2023-05-08T02:29:36;101677.03;;;17.83;64.02
64739;BME280;51175;51.186;0.276;2023-05-08T02:30:07;101676.25;;;17.83;63.92
64739;BME280;51175;51.186;0.276;2023-05-08T02:30:40;101680.81;;;17.82;63.78
64739;BME280;51175;51.186;0.276;2023-05-08T02:31:12;101686.94;;;17.83;64.09
64739;BME280;51175;51.186;0.276;2023-05-08T02:31:44;101679.22;;;17.81;64.05
64739;BME280;51175;51.186;0.276;2023-05-08T02:32:18;101678.41;;;17.81;64.00
64739;BME280;51175;51.186;0.276;2023-05-08T02:32:49;101682.94;;;17.80;63.98
64739;BME280;51175;51.186;0.276;2023-05-08T02:33:21;101670.38;;;17.81;63.95
64739;BME280;51175;51.186;0.276;2023-05-08T02:33:52;101681.34;;;17.79;63.75
64739;BME280;51175;51.186;0.276;2023-05-08T02:34:24;101676.00;;;17.79;63.92
64739;BME280;51175;51.186;0.276;2023-05-08T02:34:55;101666.91;;;17.80;63.74
64739;BME280;51175;51.186;0.276;2023-05-08T02:35:28;101680.28;;;17.80;64.04
64739;BME280;51175;51.186;0.276;2023-05-08T02:36:02;101677.59;;;17.80;63.89
64739;BME280;51175;51.186;0.276;2023-05-08T02:36:34;101682.16;;;17.80;63.62
64739;BME280;51175;51.186;0.276;2023-05-08T02:37:06;101678.69;;;17.79;64.08
64739;BME280;51175;51.186;0.276;2023-05-08T02:37:40;101678.69;;;17.79;63.84
64739;BME280;51175;51.186;0.276;2023-05-08T02:38:13;101674.44;;;17.78;63.90
64739;BME280;51175;51.186;0.276;2023-05-08T02:38:46;101673.63;;;17.78;64.05
64739;BME280;51175;51.186;0.276;2023-05-08T02:39:18;101670.94;;;17.78;64.11
64739;BME280;51175;51.186;0.276;2023-05-08T02:39:52;101678.16;;;17.77;63.91
64739;BME280;51175;51.186;0.276;2023-05-08T02:40:27;101669.38;;;17.77;63.95
64739;BME280;51175;51.186;0.276;2023-05-08T02:40:59;101671.22;;;17.76;63.83
64739;BME280;51175;51.186;0.276;2023-05-08T02:41:31;101672.31;;;17.75;63.97
64739;BME280;51175;51.186;0.276;2023-05-08T02:42:03;101668.84;;;17.74;64.12
64739;BME280;51175;51.186;0.276;2023-05-08T02:42:33;101680.34;;;17.75;64.11
64739;BME280;51175;51.186;0.276;2023-05-08T02:43:04;101677.66;;;17.75;63.99
64739;BME280;51175;51.186;0.276;2023-05-08T02:43:35;101671.50;;;17.74;63.86
64739;BME280;51175;51.186;0.276;2023-05-08T02:44:05;101677.66;;;17.75;63.92
64739;BME280;51175;51.186;0.276;2023-05-08T02:44:36;101677.13;;;17.73;64.05
64739;BME280;51175;51.186;0.276;2023-05-08T02:45:07;101675.28;;;17.73;63.79
64739;BME280;51175;51.186;0.276;2023-05-08T02:45:49;101678.72;;;17.74;63.84
64739;BME280;51175;51.186;0.276;2023-05-08T02:46:45;101671.78;;;17.73;63.79
64739;BME280;51175;51.186;0.276;2023-05-08T02:47:21;101675.53;;;17.72;63.74
64739;BME280;51175;51.186;0.276;2023-05-08T02:48:40;101666.72;;;17.71;63.98
64739;BME280;51175;51.186;0.276;2023-05-08T02:51:36;101672.63;;;17.68;64.02
64739;BME280;51175;51.186;0.276;2023-05-08T02:53:02;101676.63;;;17.66;63.99
64739;BME280;51175;51.186;0.276;2023-05-08T02:53:37;101678.53;;;17.65;64.05
64739;BME280;51175;51.186;0.276;2023-05-08T02:54:52;101660.59;;;17.66;63.83
64739;BME280;51175;51.186;0.276;2023-05-08T02:55:45;101662.78;;;17.64;63.87
64739;BME280;51175;51.186;0.276;2023-05-08T02:56:24;101666.50;;;17.62;63.92
64739;BME280;51175;51.186;0.276;2023-05-08T02:58:23;101664.91;;;17.61;63.83
64739;BME280;51175;51.186;0.276;2023-05-08T03:00:21;101668.69;;;17.60;63.91
64739;BME280;51175;51.186;0.276;2023-05-08T03:01:04;101676.69;;;17.60;64.05
64739;BME280;51175;51.186;0.276;2023-05-08T03:02:12;101676.97;;;17.59;63.88
64739;BME280;51175;51.186;0.276;2023-05-08T03:02:55;101673.78;;;17.57;63.96
64739;BME280;51175;51.186;0.276;2023-05-08T03:03:33;101672.97;;;17.56;64.18
64739;BME280;51175;51.186;0.276;2023-05-08T03:04:08;101679.13;;;17.57;64.26
64739;BME280;51175;51.186;0.276;2023-05-08T03:05:05;101672.97;;;17.56;64.06
64739;BME280;51175;51.186;0.276;2023-05-08T03:05:46;101675.91;;;17.55;64.15
64739;BME280;51175;51.186;0.276;2023-05-08T03:06:20;101673.25;;;17.55;63.81
64739;BME280;51175;51.186;0.276;2023-05-08T03:06:55;101671.66;;;17.54;63.79
64739;BME280;51175;51.186;0.276;2023-05-08T03:07:28;101668.97;;;17.54;63.92
64739;BME280;51175;51.186;0.276;2023-05-08T03:08:02;101671.66;;;17.54;63.85
64739;BME280;51175;51.186;0.276;2023-05-08T03:08:34;101671.66;;;17.54;63.73
64739;BME280;51175;51.186;0.276;2023-05-08T03:09:11;101669.78;;;17.54;63.82
64739;BME280;51175;51.186;0.276;2023-05-08T03:09:47;101670.56;;;17.55;63.88
64739;BME280;51175;51.186;0.276;2023-05-08T03:10:24;101665.22;;;17.55;64.18
64739;BME280;51175;51.186;0.276;2023-05-08T03:11:00;101664.44;;;17.54;63.96
64739;BME280;51175;51.186;0.276;2023-05-08T03:11:38;101665.22;;;17.55;63.71
64739;BME280;51175;51.186;0.276;2023-05-08T03:12:15;101661.78;;;17.54;63.76
64739;BME280;51175;51.186;0.276;2023-05-08T03:12:48;101659.88;;;17.55;63.86
64739;BME280;51175;51.186;0.276;2023-05-08T03:13:21;101660.97;;;17.54;63.79
64739;BME280;51175;51.186;0.276;2023-05-08T03:13:55;101649.47;;;17.53;63.71
64739;BME280;51175;51.186;0.276;2023-05-08T03:14:29;101659.09;;;17.54;63.65
64739;BME280;51175;51.186;0.276;2023-05-08T03:15:59;101653.25;;;17.52;63.86
64739;BME280;51175;51.186;0.276;2023-05-08T03:16:33;101657.50;;;17.53;63.71
64739;BME280;51175;51.186;0.276;2023-05-08T03:17:08;101655.91;;;17.52;63.93
64739;BME280;51175;51.186;0.276;2023-05-08T03:17:43;101659.38;;;17.53;63.57
64739;BME280;51175;51.186;0.276;2023-05-08T03:18:20;101656.72;;;17.53;63.79
64739;BME280;51175;51.186;0.276;2023-05-08T03:18:56;101650.56;;;17.52;63.60
64739;BME280;51175;51.186;0.276;2023-05-08T03:19:36;101651.38;;;17.53;63.73
64739;BME280;51175;51.186;0.276;2023-05-08T03:20:11;101652.44;;;17.52;63.66
64739;BME280;51175;51.186;0.276;2023-05-08T03:20:46;101660.16;;;17.53;63.65
64739;BME280;51175;51.186;0.276;2023-05-08T03:21:18;101656.72;;;17.53;63.73
64739;BME280;51175;51.186;0.276;2023-05-08T03:21:50;101652.97;;;17.54;63.47
64739;BME280;51175;51.186;0.276;2023-05-08T03:22:24;101654.81;;;17.53;63.47